Terminal Aerodrome Forecast
Issued by NWS Cleveland, OH

Home | Current Version | Previous Version | Text Only | Print | Product List | Glossary Off
Versions: 1 2 3 4 5 6 7 8 9 10 11 12 13 14 15 16 17 18 19 20 21 22 23 24 25 26 27 28

000
FTUS41 KCLE 191120
TAFCLE
TAF
KCLE 191120Z 1912/2018 14014G20KT P6SM SCT050 OVC100
     FM191800 19012G20KT P6SM -SHRA OVC050
      TEMPO 1919/1922 2SM TSRA OVC025CB
     FM200100 24008KT P6SM -SHRA OVC025
     FM200600 29010KT P6SM OVC015=

USA.gov is the U.S. government's official web portal to all federal, state and local government web resources and services.